sensor_id;sensor_type;location;lat;lon;timestamp;temperature;humidity
9175;DHT22;54374;50.196;8.050;2022-08-27T00:00:30;19.20;99.90
9175;DHT22;54374;50.196;8.050;2022-08-27T00:02:57;19.30;99.90
9175;DHT22;54374;50.196;8.050;2022-08-27T00:05:24;19.40;99.90
9175;DHT22;54374;50.196;8.050;2022-08-27T00:07:51;19.30;99.90
9175;DHT22;54374;50.196;8.050;2022-08-27T00:10:21;19.30;99.90
9175;DHT22;54374;50.196;8.050;2022-08-27T00:12:49;19.30;99.90
9175;DHT22;54374;50.196;8.050;2022-08-27T00:15:16;19.30;99.90
9175;DHT22;54374;50.196;8.050;2022-08-27T00:17:45;19.30;99.90
9175;DHT22;54374;50.196;8.050;2022-08-27T00:20:15;19.30;99.90
9175;DHT22;54374;50.196;8.050;2022-08-27T00:22:42;19.20;99.90
9175;DHT22;54374;50.196;8.050;2022-08-27T00:25:10;19.20;99.90
9175;DHT22;54374;50.196;8.050;2022-08-27T00:27:38;19.20;99.90
9175;DHT22;54374;50.196;8.050;2022-08-27T00:30:08;19.20;99.90
9175;DHT22;54374;50.196;8.050;2022-08-27T00:32:35;19.20;99.90
9175;DHT22;54374;50.196;8.050;2022-08-27T00:35:06;19.20;99.90
9175;DHT22;54374;50.196;8.050;2022-08-27T00:37:33;19.20;99.90
9175;DHT22;54374;50.196;8.050;2022-08-27T00:40:02;19.20;99.90
9175;DHT22;54374;50.196;8.050;2022-08-27T00:42:30;19.20;99.90
9175;DHT22;54374;50.196;8.050;2022-08-27T00:44:57;19.10;99.90
9175;DHT22;54374;50.196;8.050;2022-08-27T00:47:27;19.20;99.90
9175;DHT22;54374;50.196;8.050;2022-08-27T00:49:57;19.20;99.90
9175;DHT22;54374;50.196;8.050;2022-08-27T00:52:31;19.20;99.90
9175;DHT22;54374;50.196;8.050;2022-08-27T00:55:02;19.20;99.90
9175;DHT22;54374;50.196;8.050;2022-08-27T00:57:30;19.20;99.90
9175;DHT22;54374;50.196;8.050;2022-08-27T01:00:00;19.10;99.90
9175;DHT22;54374;50.196;8.050;2022-08-27T01:02:27;19.10;99.90
9175;DHT22;54374;50.196;8.050;2022-08-27T01:04:58;19.10;99.90
9175;DHT22;54374;50.196;8.050;2022-08-27T01:07:29;19.10;99.90
9175;DHT22;54374;50.196;8.050;2022-08-27T01:09:58;19.00;99.90
9175;DHT22;54374;50.196;8.050;2022-08-27T01:12:28;19.10;99.90
9175;DHT22;54374;50.196;8.050;2022-08-27T01:14:55;19.00;99.90
9175;DHT22;54374;50.196;8.050;2022-08-27T01:17:23;18.90;99.90
9175;DHT22;54374;50.196;8.050;2022-08-27T01:19:53;18.90;99.90
9175;DHT22;54374;50.196;8.050;2022-08-27T01:22:30;18.80;99.90
9175;DHT22;54374;50.196;8.050;2022-08-27T01:25:04;18.80;99.90
9175;DHT22;54374;50.196;8.050;2022-08-27T01:27:33;18.80;99.90
9175;DHT22;54374;50.196;8.050;2022-08-27T01:30:02;18.80;99.90
9175;DHT22;54374;50.196;8.050;2022-08-27T01:32:31;18.80;99.90
9175;DHT22;54374;50.196;8.050;2022-08-27T01:34:59;18.80;99.90
9175;DHT22;54374;50.196;8.050;2022-08-27T01:37:27;18.80;99.90
9175;DHT22;54374;50.196;8.050;2022-08-27T01:39:56;18.80;99.90
9175;DHT22;54374;50.196;8.050;2022-08-27T01:42:28;18.80;99.90
9175;DHT22;54374;50.196;8.050;2022-08-27T01:44:58;18.70;99.90
9175;DHT22;54374;50.196;8.050;2022-08-27T01:47:27;18.80;99.90
9175;DHT22;54374;50.196;8.050;2022-08-27T01:49:54;18.80;99.90
9175;DHT22;54374;50.196;8.050;2022-08-27T01:52:25;18.70;99.90
9175;DHT22;54374;50.196;8.050;2022-08-27T01:54:52;18.70;99.90
9175;DHT22;54374;50.196;8.050;2022-08-27T01:57:20;18.70;99.90
9175;DHT22;54374;50.196;8.050;2022-08-27T01:59:48;18.70;99.90
9175;DHT22;54374;50.196;8.050;2022-08-27T02:02:16;18.70;99.90
9175;DHT22;54374;50.196;8.050;2022-08-27T02:04:44;18.60;99.90
9175;DHT22;54374;50.196;8.050;2022-08-27T02:07:11;18.60;99.90
9175;DHT22;54374;50.196;8.050;2022-08-27T02:09:39;18.50;99.90
9175;DHT22;54374;50.196;8.050;2022-08-27T02:12:06;18.50;99.90
9175;DHT22;54374;50.196;8.050;2022-08-27T02:14:33;18.40;99.90
9175;DHT22;54374;50.196;8.050;2022-08-27T02:17:02;18.30;99.90
9175;DHT22;54374;50.196;8.050;2022-08-27T02:19:29;18.30;99.90
9175;DHT22;54374;50.196;8.050;2022-08-27T02:21:56;18.30;99.90
9175;DHT22;54374;50.196;8.050;2022-08-27T02:24:25;18.20;99.90
9175;DHT22;54374;50.196;8.050;2022-08-27T02:26:53;18.20;99.90
9175;DHT22;54374;50.196;8.050;2022-08-27T02:29:21;18.20;99.90
9175;DHT22;54374;50.196;8.050;2022-08-27T02:31:48;18.10;99.90
9175;DHT22;54374;50.196;8.050;2022-08-27T02:34:17;18.10;99.90
9175;DHT22;54374;50.196;8.050;2022-08-27T02:36:44;18.10;99.90
9175;DHT22;54374;50.196;8.050;2022-08-27T02:39:11;18.10;99.90
9175;DHT22;54374;50.196;8.050;2022-08-27T02:41:38;18.10;99.90
9175;DHT22;54374;50.196;8.050;2022-08-27T02:44:05;18.10;99.90
9175;DHT22;54374;50.196;8.050;2022-08-27T02:46:32;18.10;99.90
9175;DHT22;54374;50.196;8.050;2022-08-27T02:48:59;18.20;99.90
9175;DHT22;54374;50.196;8.050;2022-08-27T02:51:28;18.10;99.90
9175;DHT22;54374;50.196;8.050;2022-08-27T02:53:55;18.10;99.90
9175;DHT22;54374;50.196;8.050;2022-08-27T02:56:22;18.00;99.90
9175;DHT22;54374;50.196;8.050;2022-08-27T02:58:49;18.00;99.90
9175;DHT22;54374;50.196;8.050;2022-08-27T03:01:16;18.00;99.90
9175;DHT22;54374;50.196;8.050;2022-08-27T03:03:43;18.10;99.90
9175;DHT22;54374;50.196;8.050;2022-08-27T03:06:10;18.10;99.90
9175;DHT22;54374;50.196;8.050;2022-08-27T03:08:39;18.10;99.90
9175;DHT22;54374;50.196;8.050;2022-08-27T03:11:06;18.20;99.90
9175;DHT22;54374;50.196;8.050;2022-08-27T03:13:35;18.10;99.90
9175;DHT22;54374;50.196;8.050;2022-08-27T03:16:02;18.20;99.90
9175;DHT22;54374;50.196;8.050;2022-08-27T03:18:30;18.20;99.90
9175;DHT22;54374;50.196;8.050;2022-08-27T03:20:57;18.30;99.90
9175;DHT22;54374;50.196;8.050;2022-08-27T03:23:27;18.30;99.90
9175;DHT22;54374;50.196;8.050;2022-08-27T03:25:58;18.30;99.90
9175;DHT22;54374;50.196;8.050;2022-08-27T03:28:27;18.30;99.90
9175;DHT22;54374;50.196;8.050;2022-08-27T03:30:56;18.30;99.90
9175;DHT22;54374;50.196;8.050;2022-08-27T03:33:25;18.30;99.90
9175;DHT22;54374;50.196;8.050;2022-08-27T03:35:52;18.30;99.90
9175;DHT22;54374;50.196;8.050;2022-08-27T03:38:19;18.40;99.90
9175;DHT22;54374;50.196;8.050;2022-08-27T03:40:47;18.30;99.90
9175;DHT22;54374;50.196;8.050;2022-08-27T03:43:18;18.30;99.90
9175;DHT22;54374;50.196;8.050;2022-08-27T03:45:46;18.30;99.90
9175;DHT22;54374;50.196;8.050;2022-08-27T03:48:13;18.40;99.90
9175;DHT22;54374;50.196;8.050;2022-08-27T03:50:42;18.40;99.90
9175;DHT22;54374;50.196;8.050;2022-08-27T03:53:12;18.30;99.90
9175;DHT22;54374;50.196;8.050;2022-08-27T03:55:40;18.30;99.90
9175;DHT22;54374;50.196;8.050;2022-08-27T03:58:07;18.30;99.90
9175;DHT22;54374;50.196;8.050;2022-08-27T04:00:36;18.30;99.90
9175;DHT22;54374;50.196;8.050;2022-08-27T04:03:04;18.30;99.90
9175;DHT22;54374;50.196;8.050;2022-08-27T04:05:32;18.30;99.90
9175;DHT22;54374;50.196;8.050;2022-08-27T04:07:59;18.30;99.90
9175;DHT22;54374;50.196;8.050;2022-08-27T04:10:27;18.30;99.90
9175;DHT22;54374;50.196;8.050;2022-08-27T04:12:54;18.30;99.90
9175;DHT22;54374;50.196;8.050;2022-08-27T04:15:21;18.30;99.90
9175;DHT22;54374;50.196;8.050;2022-08-27T04:17:49;18.30;99.90
9175;DHT22;54374;50.196;8.050;2022-08-27T04:20:17;18.30;99.90
9175;DHT22;54374;50.196;8.050;2022-08-27T04:22:44;18.20;99.90
9175;DHT22;54374;50.196;8.050;2022-08-27T04:25:10;18.20;99.90
9175;DHT22;54374;50.196;8.050;2022-08-27T04:27:37;18.20;99.90
9175;DHT22;54374;50.196;8.050;2022-08-27T04:30:05;18.20;99.90
9175;DHT22;54374;50.196;8.050;2022-08-27T04:32:34;18.20;99.90
9175;DHT22;54374;50.196;8.050;2022-08-27T04:35:03;18.20;99.90
9175;DHT22;54374;50.196;8.050;2022-08-27T04:37:31;18.20;99.90
9175;DHT22;54374;50.196;8.050;2022-08-27T04:39:58;18.20;99.90
9175;DHT22;54374;50.196;8.050;2022-08-27T04:42:26;18.20;99.90
9175;DHT22;54374;50.196;8.050;2022-08-27T04:44:52;18.20;99.90
9175;DHT22;54374;50.196;8.050;2022-08-27T04:47:20;18.20;99.90
9175;DHT22;54374;50.196;8.050;2022-08-27T04:49:47;18.30;99.90
9175;DHT22;54374;50.196;8.050;2022-08-27T04:52:15;18.30;99.90
9175;DHT22;54374;50.196;8.050;2022-08-27T04:54:42;18.30;99.90
9175;DHT22;54374;50.196;8.050;2022-08-27T04:57:10;18.30;99.90
9175;DHT22;54374;50.196;8.050;2022-08-27T04:59:36;18.30;99.90
9175;DHT22;54374;50.196;8.050;2022-08-27T05:02:06;18.30;99.90
9175;DHT22;54374;50.196;8.050;2022-08-27T05:04:34;18.30;99.90
9175;DHT22;54374;50.196;8.050;2022-08-27T05:07:02;18.30;99.90
9175;DHT22;54374;50.196;8.050;2022-08-27T05:09:30;18.20;99.90
9175;DHT22;54374;50.196;8.050;2022-08-27T05:11:58;18.20;99.90
9175;DHT22;54374;50.196;8.050;2022-08-27T05:14:25;18.20;99.90
9175;DHT22;54374;50.196;8.050;2022-08-27T05:16:55;18.30;99.90
9175;DHT22;54374;50.196;8.050;2022-08-27T05:19:22;18.30;99.90
9175;DHT22;54374;50.196;8.050;2022-08-27T05:21:50;18.20;99.90
9175;DHT22;54374;50.196;8.050;2022-08-27T05:24:18;18.20;99.90
9175;DHT22;54374;50.196;8.050;2022-08-27T05:26:47;18.20;99.90
9175;DHT22;54374;50.196;8.050;2022-08-27T05:29:14;18.20;99.90
9175;DHT22;54374;50.196;8.050;2022-08-27T05:31:42;18.20;99.90
9175;DHT22;54374;50.196;8.050;2022-08-27T05:34:09;18.20;99.90
9175;DHT22;54374;50.196;8.050;2022-08-27T05:36:37;18.30;99.90
9175;DHT22;54374;50.196;8.050;2022-08-27T05:39:05;18.30;99.90
9175;DHT22;54374;50.196;8.050;2022-08-27T05:41:33;18.40;99.90
9175;DHT22;54374;50.196;8.050;2022-08-27T05:44:06;18.40;99.90
9175;DHT22;54374;50.196;8.050;2022-08-27T05:46:34;18.40;99.90
9175;DHT22;54374;50.196;8.050;2022-08-27T05:49:02;18.40;99.90
9175;DHT22;54374;50.196;8.050;2022-08-27T05:51:31;18.40;99.90
9175;DHT22;54374;50.196;8.050;2022-08-27T05:54:00;18.40;99.90
9175;DHT22;54374;50.196;8.050;2022-08-27T05:56:29;18.40;99.90
9175;DHT22;54374;50.196;8.050;2022-08-27T05:58:56;18.40;99.90
9175;DHT22;54374;50.196;8.050;2022-08-27T06:01:44;18.50;99.90
9175;DHT22;54374;50.196;8.050;2022-08-27T06:04:12;18.50;99.90
9175;DHT22;54374;50.196;8.050;2022-08-27T06:06:42;18.50;99.90
9175;DHT22;54374;50.196;8.050;2022-08-27T06:09:10;18.50;99.90
9175;DHT22;54374;50.196;8.050;2022-08-27T06:11:37;18.50;99.90
9175;DHT22;54374;50.196;8.050;2022-08-27T06:14:05;18.40;99.90
9175;DHT22;54374;50.196;8.050;2022-08-27T06:16:34;18.40;99.90
9175;DHT22;54374;50.196;8.050;2022-08-27T06:19:02;18.40;99.90
9175;DHT22;54374;50.196;8.050;2022-08-27T06:21:30;18.40;99.90
9175;DHT22;54374;50.196;8.050;2022-08-27T06:23:57;18.40;99.90
9175;DHT22;54374;50.196;8.050;2022-08-27T06:26:25;18.40;99.90
9175;DHT22;54374;50.196;8.050;2022-08-27T06:28:52;18.40;99.90
9175;DHT22;54374;50.196;8.050;2022-08-27T06:31:21;18.40;99.90
9175;DHT22;54374;50.196;8.050;2022-08-27T06:33:49;18.30;99.90
9175;DHT22;54374;50.196;8.050;2022-08-27T06:36:20;18.30;99.90
9175;DHT22;54374;50.196;8.050;2022-08-27T06:38:47;18.30;99.90
9175;DHT22;54374;50.196;8.050;2022-08-27T06:41:16;18.30;99.90
9175;DHT22;54374;50.196;8.050;2022-08-27T06:43:44;18.30;99.90
9175;DHT22;54374;50.196;8.050;2022-08-27T06:46:13;18.40;99.90
9175;DHT22;54374;50.196;8.050;2022-08-27T06:48:41;18.30;99.90
9175;DHT22;54374;50.196;8.050;2022-08-27T06:51:11;18.30;99.90
9175;DHT22;54374;50.196;8.050;2022-08-27T06:53:42;18.30;99.90
9175;DHT22;54374;50.196;8.050;2022-08-27T06:56:10;18.30;99.90
9175;DHT22;54374;50.196;8.050;2022-08-27T06:58:38;18.30;99.90
9175;DHT22;54374;50.196;8.050;2022-08-27T07:01:11;18.30;99.90
9175;DHT22;54374;50.196;8.050;2022-08-27T07:03:39;18.30;99.90
9175;DHT22;54374;50.196;8.050;2022-08-27T07:06:06;18.30;99.90
9175;DHT22;54374;50.196;8.050;2022-08-27T07:08:33;18.30;99.90
9175;DHT22;54374;50.196;8.050;2022-08-27T07:11:03;18.20;99.90
9175;DHT22;54374;50.196;8.050;2022-08-27T07:13:30;18.20;99.90
9175;DHT22;54374;50.196;8.050;2022-08-27T07:15:58;18.10;99.90
9175;DHT22;54374;50.196;8.050;2022-08-27T07:18:26;18.00;99.90
9175;DHT22;54374;50.196;8.050;2022-08-27T07:20:53;18.10;99.90
9175;DHT22;54374;50.196;8.050;2022-08-27T07:23:21;18.10;99.90
9175;DHT22;54374;50.196;8.050;2022-08-27T07:25:48;18.00;99.90
9175;DHT22;54374;50.196;8.050;2022-08-27T07:28:16;18.00;99.90
9175;DHT22;54374;50.196;8.050;2022-08-27T07:30:43;18.00;99.90
9175;DHT22;54374;50.196;8.050;2022-08-27T07:33:10;18.00;99.90
9175;DHT22;54374;50.196;8.050;2022-08-27T07:35:37;18.00;99.90
9175;DHT22;54374;50.196;8.050;2022-08-27T07:38:04;18.10;99.90
9175;DHT22;54374;50.196;8.050;2022-08-27T07:40:31;18.10;99.90
9175;DHT22;54374;50.196;8.050;2022-08-27T07:42:58;18.00;99.90
9175;DHT22;54374;50.196;8.050;2022-08-27T07:45:45;18.10;99.90
9175;DHT22;54374;50.196;8.050;2022-08-27T07:48:13;18.20;99.90
9175;DHT22;54374;50.196;8.050;2022-08-27T07:50:41;18.20;99.90
9175;DHT22;54374;50.196;8.050;2022-08-27T07:53:08;18.30;99.90
9175;DHT22;54374;50.196;8.050;2022-08-27T07:55:35;18.30;99.90
9175;DHT22;54374;50.196;8.050;2022-08-27T07:58:03;18.30;99.90
9175;DHT22;54374;50.196;8.050;2022-08-27T08:00:30;18.30;99.90
9175;DHT22;54374;50.196;8.050;2022-08-27T08:02:59;18.40;99.90
9175;DHT22;54374;50.196;8.050;2022-08-27T08:05:27;18.50;99.90
9175;DHT22;54374;50.196;8.050;2022-08-27T08:07:54;18.60;99.90
9175;DHT22;54374;50.196;8.050;2022-08-27T08:10:21;18.70;99.90
9175;DHT22;54374;50.196;8.050;2022-08-27T08:12:49;18.80;99.90
9175;DHT22;54374;50.196;8.050;2022-08-27T08:15:16;18.90;99.90
9175;DHT22;54374;50.196;8.050;2022-08-27T08:17:44;18.90;99.90
9175;DHT22;54374;50.196;8.050;2022-08-27T08:20:13;19.00;99.90
9175;DHT22;54374;50.196;8.050;2022-08-27T08:22:41;19.10;99.90
9175;DHT22;54374;50.196;8.050;2022-08-27T08:25:09;19.10;99.90
9175;DHT22;54374;50.196;8.050;2022-08-27T08:27:39;19.20;99.90
9175;DHT22;54374;50.196;8.050;2022-08-27T08:30:07;19.30;99.90
9175;DHT22;54374;50.196;8.050;2022-08-27T08:32:34;19.50;99.90
9175;DHT22;54374;50.196;8.050;2022-08-27T08:35:02;19.50;99.90
9175;DHT22;54374;50.196;8.050;2022-08-27T08:37:31;19.60;99.90
9175;DHT22;54374;50.196;8.050;2022-08-27T08:39:58;19.60;99.90
9175;DHT22;54374;50.196;8.050;2022-08-27T08:42:30;19.60;99.90
9175;DHT22;54374;50.196;8.050;2022-08-27T08:44:58;19.70;99.90
9175;DHT22;54374;50.196;8.050;2022-08-27T08:47:29;19.70;99.90
9175;DHT22;54374;50.196;8.050;2022-08-27T08:50:03;19.70;99.90
9175;DHT22;54374;50.196;8.050;2022-08-27T08:52:47;19.80;99.90
9175;DHT22;54374;50.196;8.050;2022-08-27T08:55:31;19.70;99.90
9175;DHT22;54374;50.196;8.050;2022-08-27T08:58:11;19.80;99.90
9175;DHT22;54374;50.196;8.050;2022-08-27T09:00:42;19.90;99.90
9175;DHT22;54374;50.196;8.050;2022-08-27T09:03:10;19.80;99.90
9175;DHT22;54374;50.196;8.050;2022-08-27T09:05:41;19.80;99.90
9175;DHT22;54374;50.196;8.050;2022-08-27T09:08:15;19.80;99.90
9175;DHT22;54374;50.196;8.050;2022-08-27T09:10:47;19.80;99.90
9175;DHT22;54374;50.196;8.050;2022-08-27T09:13:21;19.90;99.90
9175;DHT22;54374;50.196;8.050;2022-08-27T09:15:50;20.10;99.90
9175;DHT22;54374;50.196;8.050;2022-08-27T09:18:19;20.00;99.90
9175;DHT22;54374;50.196;8.050;2022-08-27T09:20:50;20.10;99.90
9175;DHT22;54374;50.196;8.050;2022-08-27T09:23:25;20.20;99.90
9175;DHT22;54374;50.196;8.050;2022-08-27T09:25:55;20.30;99.90
9175;DHT22;54374;50.196;8.050;2022-08-27T09:28:24;20.30;99.90
9175;DHT22;54374;50.196;8.050;2022-08-27T09:31:12;20.50;99.90
9175;DHT22;54374;50.196;8.050;2022-08-27T09:33:40;20.60;99.90
9175;DHT22;54374;50.196;8.050;2022-08-27T09:36:09;20.80;99.90
9175;DHT22;54374;50.196;8.050;2022-08-27T09:38:40;20.90;99.90
9175;DHT22;54374;50.196;8.050;2022-08-27T09:41:12;21.00;99.90
9175;DHT22;54374;50.196;8.050;2022-08-27T09:43:42;20.90;99.90
9175;DHT22;54374;50.196;8.050;2022-08-27T09:46:18;20.90;99.90
9175;DHT22;54374;50.196;8.050;2022-08-27T09:48:45;20.90;99.90
9175;DHT22;54374;50.196;8.050;2022-08-27T09:51:13;20.80;99.90
9175;DHT22;54374;50.196;8.050;2022-08-27T09:53:47;20.70;99.90
9175;DHT22;54374;50.196;8.050;2022-08-27T09:56:25;20.80;99.90
9175;DHT22;54374;50.196;8.050;2022-08-27T09:58:55;20.80;99.90
9175;DHT22;54374;50.196;8.050;2022-08-27T10:01:27;20.80;99.90
9175;DHT22;54374;50.196;8.050;2022-08-27T10:04:04;20.80;99.90
9175;DHT22;54374;50.196;8.050;2022-08-27T10:06:31;20.60;99.90
9175;DHT22;54374;50.196;8.050;2022-08-27T10:09:04;20.50;99.90
9175;DHT22;54374;50.196;8.050;2022-08-27T10:11:35;20.60;99.90
9175;DHT22;54374;50.196;8.050;2022-08-27T10:14:07;20.70;99.90
9175;DHT22;54374;50.196;8.050;2022-08-27T10:16:56;20.80;99.90
9175;DHT22;54374;50.196;8.050;2022-08-27T10:19:37;20.70;99.90
9175;DHT22;54374;50.196;8.050;2022-08-27T10:22:13;20.70;99.90
9175;DHT22;54374;50.196;8.050;2022-08-27T10:25:00;20.80;99.90
9175;DHT22;54374;50.196;8.050;2022-08-27T10:27:33;20.80;99.90
9175;DHT22;54374;50.196;8.050;2022-08-27T10:30:05;20.90;99.90
9175;DHT22;54374;50.196;8.050;2022-08-27T10:32:46;20.90;99.90
9175;DHT22;54374;50.196;8.050;2022-08-27T10:35:20;21.00;99.90
9175;DHT22;54374;50.196;8.050;2022-08-27T10:37:55;21.00;99.90
9175;DHT22;54374;50.196;8.050;2022-08-27T10:40:32;21.10;99.90
9175;DHT22;54374;50.196;8.050;2022-08-27T10:43:10;21.30;99.90
9175;DHT22;54374;50.196;8.050;2022-08-27T10:45:46;21.50;99.90
9175;DHT22;54374;50.196;8.050;2022-08-27T10:48:21;21.60;99.90
9175;DHT22;54374;50.196;8.050;2022-08-27T10:50:55;21.70;99.90
9175;DHT22;54374;50.196;8.050;2022-08-27T10:53:31;21.70;99.90
9175;DHT22;54374;50.196;8.050;2022-08-27T10:56:08;21.80;99.90
9175;DHT22;54374;50.196;8.050;2022-08-27T10:58:44;21.80;99.90
9175;DHT22;54374;50.196;8.050;2022-08-27T11:01:20;21.90;99.90
9175;DHT22;54374;50.196;8.050;2022-08-27T11:03:52;22.00;99.90
9175;DHT22;54374;50.196;8.050;2022-08-27T11:06:25;22.20;99.90
9175;DHT22;54374;50.196;8.050;2022-08-27T11:08:57;22.20;99.90
9175;DHT22;54374;50.196;8.050;2022-08-27T11:11:33;22.20;99.90
9175;DHT22;54374;50.196;8.050;2022-08-27T11:14:07;22.30;99.90
9175;DHT22;54374;50.196;8.050;2022-08-27T11:16:39;22.40;99.90
9175;DHT22;54374;50.196;8.050;2022-08-27T11:19:13;22.40;99.90
9175;DHT22;54374;50.196;8.050;2022-08-27T11:21:46;22.30;99.90
9175;DHT22;54374;50.196;8.050;2022-08-27T11:24:23;22.30;99.90
9175;DHT22;54374;50.196;8.050;2022-08-27T11:26:55;22.30;99.90
9175;DHT22;54374;50.196;8.050;2022-08-27T11:29:26;22.10;99.90
9175;DHT22;54374;50.196;8.050;2022-08-27T11:31:59;22.10;99.90
9175;DHT22;54374;50.196;8.050;2022-08-27T11:34:34;22.00;99.90
9175;DHT22;54374;50.196;8.050;2022-08-27T11:37:15;21.90;99.90
9175;DHT22;54374;50.196;8.050;2022-08-27T11:40:02;21.90;99.90
9175;DHT22;54374;50.196;8.050;2022-08-27T11:42:37;21.80;99.90
9175;DHT22;54374;50.196;8.050;2022-08-27T11:45:08;21.90;99.90
9175;DHT22;54374;50.196;8.050;2022-08-27T11:47:36;21.80;99.90
9175;DHT22;54374;50.196;8.050;2022-08-27T11:50:05;21.80;99.90
9175;DHT22;54374;50.196;8.050;2022-08-27T11:52:37;21.90;99.90
9175;DHT22;54374;50.196;8.050;2022-08-27T11:55:12;22.00;99.90
9175;DHT22;54374;50.196;8.050;2022-08-27T11:57:41;22.10;99.90
9175;DHT22;54374;50.196;8.050;2022-08-27T12:00:16;22.20;99.90
9175;DHT22;54374;50.196;8.050;2022-08-27T12:02:56;22.30;99.90
9175;DHT22;54374;50.196;8.050;2022-08-27T12:05:35;22.40;99.90
9175;DHT22;54374;50.196;8.050;2022-08-27T12:08:14;22.50;99.90
9175;DHT22;54374;50.196;8.050;2022-08-27T12:11:00;22.40;99.90
9175;DHT22;54374;50.196;8.050;2022-08-27T12:13:33;22.30;99.90
9175;DHT22;54374;50.196;8.050;2022-08-27T12:16:11;22.10;99.90
9175;DHT22;54374;50.196;8.050;2022-08-27T12:18:54;22.00;99.90
9175;DHT22;54374;50.196;8.050;2022-08-27T12:21:34;21.70;99.90
9175;DHT22;54374;50.196;8.050;2022-08-27T12:24:30;21.60;99.90
9175;DHT22;54374;50.196;8.050;2022-08-27T12:27:14;21.60;99.90
9175;DHT22;54374;50.196;8.050;2022-08-27T12:29:48;21.50;99.90
9175;DHT22;54374;50.196;8.050;2022-08-27T12:32:24;21.40;99.90
9175;DHT22;54374;50.196;8.050;2022-08-27T12:34:59;21.40;99.90
9175;DHT22;54374;50.196;8.050;2022-08-27T12:37:30;21.50;99.90
9175;DHT22;54374;50.196;8.050;2022-08-27T12:39:59;21.50;99.90
9175;DHT22;54374;50.196;8.050;2022-08-27T12:42:28;21.40;99.90
9175;DHT22;54374;50.196;8.050;2022-08-27T12:44:57;21.40;99.90
9175;DHT22;54374;50.196;8.050;2022-08-27T12:47:24;21.40;99.90
9175;DHT22;54374;50.196;8.050;2022-08-27T12:49:54;21.50;99.90
9175;DHT22;54374;50.196;8.050;2022-08-27T12:52:46;21.50;99.90
9175;DHT22;54374;50.196;8.050;2022-08-27T12:55:25;21.60;99.90
9175;DHT22;54374;50.196;8.050;2022-08-27T12:58:05;21.70;99.90
9175;DHT22;54374;50.196;8.050;2022-08-27T13:00:46;22.00;99.90
9175;DHT22;54374;50.196;8.050;2022-08-27T13:03:26;22.20;99.90
9175;DHT22;54374;50.196;8.050;2022-08-27T13:05:54;22.30;99.90
9175;DHT22;54374;50.196;8.050;2022-08-27T13:08:27;22.20;99.90
9175;DHT22;54374;50.196;8.050;2022-08-27T13:10:55;22.10;99.90
9175;DHT22;54374;50.196;8.050;2022-08-27T13:13:24;22.00;99.90
9175;DHT22;54374;50.196;8.050;2022-08-27T13:15:56;21.70;99.90
9175;DHT22;54374;50.196;8.050;2022-08-27T13:18:23;21.70;99.90
9175;DHT22;54374;50.196;8.050;2022-08-27T13:21:00;21.60;99.90
9175;DHT22;54374;50.196;8.050;2022-08-27T13:23:27;21.60;99.90
9175;DHT22;54374;50.196;8.050;2022-08-27T13:26:00;21.50;99.90
9175;DHT22;54374;50.196;8.050;2022-08-27T13:28:33;21.50;99.90
9175;DHT22;54374;50.196;8.050;2022-08-27T13:31:03;21.40;99.90
9175;DHT22;54374;50.196;8.050;2022-08-27T13:33:33;21.40;99.90
9175;DHT22;54374;50.196;8.050;2022-08-27T13:36:01;21.30;99.90
9175;DHT22;54374;50.196;8.050;2022-08-27T13:38:30;21.20;99.90
9175;DHT22;54374;50.196;8.050;2022-08-27T13:41:00;21.10;99.90
9175;DHT22;54374;50.196;8.050;2022-08-27T13:43:31;21.10;99.90
9175;DHT22;54374;50.196;8.050;2022-08-27T13:46:05;21.00;99.90
9175;DHT22;54374;50.196;8.050;2022-08-27T13:48:32;21.00;99.90
9175;DHT22;54374;50.196;8.050;2022-08-27T13:50:59;21.00;99.90
9175;DHT22;54374;50.196;8.050;2022-08-27T13:53:29;21.00;99.90
9175;DHT22;54374;50.196;8.050;2022-08-27T13:56:27;21.00;99.90
9175;DHT22;54374;50.196;8.050;2022-08-27T13:59:05;21.10;99.90
9175;DHT22;54374;50.196;8.050;2022-08-27T14:01:33;20.90;99.90
9175;DHT22;54374;50.196;8.050;2022-08-27T14:04:03;21.00;99.90
9175;DHT22;54374;50.196;8.050;2022-08-27T14:06:33;20.90;99.90
9175;DHT22;54374;50.196;8.050;2022-08-27T14:09:14;20.80;99.90
9175;DHT22;54374;50.196;8.050;2022-08-27T14:11:42;20.80;99.90
9175;DHT22;54374;50.196;8.050;2022-08-27T14:14:10;20.60;99.90
9175;DHT22;54374;50.196;8.050;2022-08-27T14:16:38;20.60;99.90
9175;DHT22;54374;50.196;8.050;2022-08-27T14:19:08;20.60;99.90
9175;DHT22;54374;50.196;8.050;2022-08-27T14:21:38;20.70;99.90
9175;DHT22;54374;50.196;8.050;2022-08-27T14:24:06;20.80;99.90
9175;DHT22;54374;50.196;8.050;2022-08-27T14:26:34;20.80;99.90
9175;DHT22;54374;50.196;8.050;2022-08-27T14:29:01;20.70;99.90
9175;DHT22;54374;50.196;8.050;2022-08-27T14:31:28;20.80;99.90
9175;DHT22;54374;50.196;8.050;2022-08-27T14:33:57;20.90;99.90
9175;DHT22;54374;50.196;8.050;2022-08-27T14:36:26;20.80;99.90
9175;DHT22;54374;50.196;8.050;2022-08-27T14:38:55;20.70;99.90
9175;DHT22;54374;50.196;8.050;2022-08-27T14:41:22;20.70;99.90
9175;DHT22;54374;50.196;8.050;2022-08-27T14:43:49;20.70;99.90
9175;DHT22;54374;50.196;8.050;2022-08-27T14:46:23;20.60;99.90
9175;DHT22;54374;50.196;8.050;2022-08-27T14:48:51;20.60;99.90
9175;DHT22;54374;50.196;8.050;2022-08-27T14:51:23;20.50;99.90
9175;DHT22;54374;50.196;8.050;2022-08-27T14:53:51;20.40;99.90
9175;DHT22;54374;50.196;8.050;2022-08-27T14:56:19;20.50;99.90
9175;DHT22;54374;50.196;8.050;2022-08-27T14:58:46;20.50;99.90
9175;DHT22;54374;50.196;8.050;2022-08-27T15:01:13;20.50;99.90
9175;DHT22;54374;50.196;8.050;2022-08-27T15:03:44;20.50;99.90
9175;DHT22;54374;50.196;8.050;2022-08-27T15:06:13;20.50;99.90
9175;DHT22;54374;50.196;8.050;2022-08-27T15:08:41;20.60;99.90
9175;DHT22;54374;50.196;8.050;2022-08-27T15:11:14;20.80;99.90
9175;DHT22;54374;50.196;8.050;2022-08-27T15:13:42;20.90;99.90
9175;DHT22;54374;50.196;8.050;2022-08-27T15:16:12;20.80;99.90
9175;DHT22;54374;50.196;8.050;2022-08-27T15:18:40;20.80;99.90
9175;DHT22;54374;50.196;8.050;2022-08-27T15:21:07;20.80;99.90
9175;DHT22;54374;50.196;8.050;2022-08-27T15:23:34;20.80;99.90
9175;DHT22;54374;50.196;8.050;2022-08-27T15:26:04;20.90;99.90
9175;DHT22;54374;50.196;8.050;2022-08-27T15:28:31;20.90;99.90
9175;DHT22;54374;50.196;8.050;2022-08-27T15:30:58;21.00;99.90
9175;DHT22;54374;50.196;8.050;2022-08-27T15:33:27;21.00;99.90
9175;DHT22;54374;50.196;8.050;2022-08-27T15:35:54;21.00;99.90
9175;DHT22;54374;50.196;8.050;2022-08-27T15:38:21;20.90;99.90
9175;DHT22;54374;50.196;8.050;2022-08-27T15:40:48;20.90;99.90
9175;DHT22;54374;50.196;8.050;2022-08-27T15:43:17;20.80;99.90
9175;DHT22;54374;50.196;8.050;2022-08-27T15:45:44;20.80;99.90
9175;DHT22;54374;50.196;8.050;2022-08-27T15:48:11;20.80;99.90
9175;DHT22;54374;50.196;8.050;2022-08-27T15:50:38;20.80;99.90
9175;DHT22;54374;50.196;8.050;2022-08-27T15:53:06;20.80;99.90
9175;DHT22;54374;50.196;8.050;2022-08-27T15:55:35;20.70;99.90
9175;DHT22;54374;50.196;8.050;2022-08-27T15:58:03;20.70;99.90
9175;DHT22;54374;50.196;8.050;2022-08-27T16:00:34;20.70;99.90
9175;DHT22;54374;50.196;8.050;2022-08-27T16:03:04;20.60;99.90